Terminal Aerodrome Forecast
Issued by NWS Boise, ID

Home | Current Version | Previous Version | Text Only | Print | Product List | Glossary On
Versions: 1 2 3 4 5 6 7 8 9 10 11 12 13 14
000
FTUS45 KBOI 231753
TAFBOI
TAF
KBOI 231753Z 2318/2418 35008KT P6SM SKC
     FM240300 13006KT P6SM SCT030 OVC050
     FM240700 13007KT P6SM VCSH SCT020 OVC035
     FM241200 13012KT 3SM -SN BR OVC020=

USA.gov is the U.S. government's official web portal to all federal, state and local government web resources and services.